Time;durP1;ratioP1;P1;durP2;ratioP2;P2;SDS_P1;SDS_P2;PMS_P1;PMS_P2;Temp;Humidity;BMP_temperature;BMP_pressure;BME280_temperature;BME280_humidity;BME280_pressure;Samples;Min_cycle;Max_cycle;Signal;HPM_P1;HPM_P2
2022/03/21 00:00:45;;;;;;;17.05;11.75;;;6.50;64.90;;;;;;5015151;28;20226;-80
2022/03/21 00:03:15;;;;;;;16.92;13.50;;;6.50;65.50;;;;;;5014641;28;20210;-81
2022/03/21 00:05:42;;;;;;;16.38;13.63;;;6.50;66.20;;;;;;5014439;28;20203;-80
2022/03/21 00:08:11;;;;;;;15.00;13.38;;;6.50;66.20;;;;;;5014231;28;20625;-79
2022/03/21 00:10:38;;;;;;;13.48;11.73;;;6.50;66.00;;;;;;5013683;28;20223;-80
2022/03/21 00:13:05;;;;;;;15.88;14.15;;;6.50;66.00;;;;;;5015005;28;20268;-80
2022/03/21 00:15:34;;;;;;;14.85;13.40;;;6.50;66.40;;;;;;5014878;28;20203;-81
2022/03/21 00:18:02;;;;;;;17.60;14.93;;;6.50;66.60;;;;;;5014218;28;20235;-81
2022/03/21 00:20:31;;;;;;;15.20;13.60;;;6.40;66.70;;;;;;5013890;28;20219;-81
2022/03/21 00:22:58;;;;;;;14.27;12.30;;;6.40;66.80;;;;;;5014515;28;20207;-79
2022/03/21 00:25:25;;;;;;;13.25;11.85;;;6.30;67.30;;;;;;5014775;28;20203;-80
2022/03/21 00:27:52;;;;;;;14.82;13.32;;;6.30;67.30;;;;;;5014249;28;20221;-79
2022/03/21 00:30:19;;;;;;;16.33;14.10;;;6.30;67.70;;;;;;5014490;28;20237;-80
2022/03/21 00:32:46;;;;;;;18.40;13.73;;;6.20;67.50;;;;;;5015062;28;20210;-80
2022/03/21 00:35:15;;;;;;;18.15;14.88;;;6.20;67.50;;;;;;5015443;28;20223;-80
2022/03/21 00:37:44;;;;;;;13.98;11.77;;;6.20;67.80;;;;;;5015659;28;20207;-80
2022/03/21 00:56:15;;;;;;;17.55;13.70;;;6.00;71.00;;;;;;4961676;28;20295;-85
2022/03/21 01:24:06;;;;;;;14.55;12.23;;;5.40;73.90;;;;;;5031810;28;20214;-86
2022/03/21 01:26:54;;;;;;;21.55;13.90;;;5.40;75.00;;;;;;5040496;28;20214;-82
2022/03/21 01:39:00;;;;;;;17.35;11.82;;;5.40;75.60;;;;;;5000001;28;20200;-82
2022/03/21 01:48:12;;;;;;;17.05;13.43;;;5.30;76.70;;;;;;5051945;28;20279;-84
2022/03/21 01:50:39;;;;;;;14.45;11.45;;;5.30;77.40;;;;;;5052357;28;20305;-82
2022/03/21 01:55:51;;;;;;;14.13;12.45;;;5.30;78.30;;;;;;5049972;28;20208;-82
2022/03/21 01:58:19;;;;;;;13.35;11.95;;;5.30;78.40;;;;;;5041242;28;20664;-82
2022/03/21 02:00:46;;;;;;;12.63;11.30;;;5.30;76.50;;;;;;5043435;28;20226;-81
2022/03/21 02:03:14;;;;;;;18.45;13.02;;;5.20;75.80;;;;;;5054362;28;20207;-81
2022/03/21 02:05:41;;;;;;;12.70;10.63;;;5.20;75.80;;;;;;5054666;28;20238;-81
2022/03/21 02:08:09;;;;;;;18.08;14.18;;;4.70;78.60;;;;;;5054305;28;20270;-83
2022/03/21 02:10:36;;;;;;;16.40;14.63;;;4.80;79.90;;;;;;5051372;28;20302;-83
2022/03/21 02:13:05;;;;;;;17.65;13.07;;;4.90;79.80;;;;;;5049875;28;20265;-84
2022/03/21 02:15:32;;;;;;;17.80;14.00;;;4.90;79.60;;;;;;5040283;28;20229;-85
2022/03/21 02:18:02;;;;;;;16.83;11.38;;;4.90;79.80;;;;;;5043886;28;20660;-85
2022/03/21 02:20:32;;;;;;;16.85;12.40;;;4.60;80.80;;;;;;5041039;28;20222;-82
2022/03/21 02:23:08;;;;;;;16.27;14.57;;;4.50;81.70;;;;;;5040392;28;20220;-85
2022/03/21 02:25:37;;;;;;;15.07;12.43;;;4.70;81.30;;;;;;5044770;28;20222;-84
2022/03/21 02:28:08;;;;;;;11.90;10.55;;;4.80;81.30;;;;;;5045609;28;20565;-85
2022/03/21 02:30:40;;;;;;;13.88;12.32;;;4.80;81.50;;;;;;5043710;28;20230;-85
2022/03/21 02:33:07;;;;;;;14.32;11.95;;;4.70;81.20;;;;;;5044162;28;20210;-86
2022/03/21 02:35:34;;;;;;;15.88;12.50;;;4.80;81.90;;;;;;5044164;28;20217;-85
2022/03/21 02:38:02;;;;;;;15.30;13.65;;;4.80;82.50;;;;;;5043754;28;20206;-85
2022/03/21 02:40:29;;;;;;;15.68;12.80;;;4.90;83.00;;;;;;5042558;28;20648;-85
2022/03/21 02:42:57;;;;;;;16.70;12.20;;;4.90;83.30;;;;;;5039547;28;20301;-82
2022/03/21 02:45:24;;;;;;;17.35;12.95;;;5.00;83.50;;;;;;5039656;28;20210;-82
2022/03/21 02:47:51;;;;;;;14.80;12.88;;;5.00;83.90;;;;;;5038611;28;20216;-84
2022/03/21 02:50:30;;;;;;;17.88;12.80;;;4.90;83.70;;;;;;5038125;28;20234;-85
2022/03/21 02:52:58;;;;;;;16.08;11.65;;;4.80;84.50;;;;;;5037955;28;20214;-84
2022/03/21 02:55:25;;;;;;;13.85;12.07;;;4.90;85.00;;;;;;5038472;28;20214;-85
2022/03/21 02:57:52;;;;;;;13.50;11.60;;;4.80;85.70;;;;;;5040460;28;20213;-85
2022/03/21 03:00:20;;;;;;;15.38;12.00;;;4.80;86.30;;;;;;5043390;28;20232;-85
2022/03/21 03:02:47;;;;;;;16.55;12.20;;;4.80;86.00;;;;;;5044107;28;20211;-85
2022/03/21 03:05:14;;;;;;;15.43;12.30;;;5.00;85.80;;;;;;5043374;28;20202;-85
2022/03/21 03:07:40;;;;;;;14.93;12.10;;;5.00;85.30;;;;;;5043319;28;20224;-85
2022/03/21 03:10:08;;;;;;;14.40;11.82;;;5.00;85.20;;;;;;5040773;28;20447;-85
2022/03/21 03:12:35;;;;;;;15.75;11.32;;;5.00;85.40;;;;;;5037765;28;20203;-84
2022/03/21 03:15:02;;;;;;;18.40;13.73;;;5.00;85.30;;;;;;5040653;28;20207;-85
2022/03/21 03:17:30;;;;;;;15.65;13.07;;;5.10;85.60;;;;;;5043604;28;20213;-85
2022/03/21 03:19:56;;;;;;;14.93;13.43;;;5.10;85.10;;;;;;5043835;28;20236;-85
2022/03/21 03:22:24;;;;;;;14.77;12.15;;;5.10;84.80;;;;;;5041606;28;20207;-85
2022/03/21 03:24:52;;;;;;;14.98;12.63;;;5.10;84.90;;;;;;5038034;28;20206;-85
2022/03/21 03:27:19;;;;;;;16.38;13.60;;;5.20;85.00;;;;;;5039068;28;20210;-84
2022/03/21 03:29:46;;;;;;;17.23;12.27;;;5.10;85.40;;;;;;5050035;28;20223;-82
2022/03/21 03:32:12;;;;;;;18.77;13.52;;;5.10;85.80;;;;;;5055888;28;20209;-82
2022/03/21 03:34:40;;;;;;;14.20;12.30;;;5.10;86.30;;;;;;5048743;28;20270;-82
2022/03/21 03:37:07;;;;;;;17.75;13.25;;;5.10;86.90;;;;;;5042167;28;20274;-82
2022/03/21 03:39:34;;;;;;;18.98;12.65;;;5.00;86.00;;;;;;5038165;28;20221;-82
2022/03/21 03:42:01;;;;;;;16.23;12.60;;;5.00;86.30;;;;;;5037737;28;20224;-82
2022/03/21 03:44:28;;;;;;;14.85;12.48;;;4.90;86.60;;;;;;5038507;28;20205;-82
2022/03/21 03:46:55;;;;;;;13.80;12.40;;;4.90;87.00;;;;;;5038274;28;20209;-82
2022/03/21 03:49:23;;;;;;;16.85;13.52;;;4.90;87.40;;;;;;5038162;28;20222;-82
2022/03/21 03:51:51;;;;;;;15.65;13.68;;;4.80;87.80;;;;;;5037908;28;20217;-82
2022/03/21 03:54:18;;;;;;;14.57;11.98;;;4.80;88.10;;;;;;5037910;28;20203;-82
2022/03/21 03:56:45;;;;;;;17.45;12.93;;;4.80;88.20;;;;;;5037954;28;20205;-81
2022/03/21 03:59:12;;;;;;;14.95;11.43;;;4.80;88.60;;;;;;5037281;28;20264;-84
2022/03/21 04:01:39;;;;;;;16.63;12.57;;;4.70;88.90;;;;;;5037174;28;20209;-84
2022/03/21 04:04:06;;;;;;;15.27;12.55;;;4.70;89.50;;;;;;5037230;28;20232;-84
2022/03/21 04:06:32;;;;;;;16.67;13.73;;;4.70;89.40;;;;;;5037490;28;20730;-85
2022/03/21 04:09:00;;;;;;;17.00;13.40;;;4.70;88.80;;;;;;5037060;28;20206;-83
2022/03/21 04:11:27;;;;;;;18.25;12.38;;;4.60;88.80;;;;;;5017286;28;20238;-82
2022/03/21 04:13:54;;;;;;;14.13;12.68;;;4.60;89.00;;;;;;5021264;28;20209;-82
2022/03/21 04:16:21;;;;;;;14.10;12.35;;;4.60;89.20;;;;;;5036946;28;20203;-82
2022/03/21 04:18:48;;;;;;;17.52;12.40;;;4.60;89.40;;;;;;5038149;28;20206;-82
2022/03/21 04:21:15;;;;;;;21.52;14.98;;;4.50;89.50;;;;;;5036034;28;20223;-84
2022/03/21 04:23:42;;;;;;;17.15;12.65;;;4.50;90.00;;;;;;5036739;28;20209;-84
2022/03/21 04:26:11;;;;;;;16.77;14.02;;;4.50;90.10;;;;;;5036664;28;20206;-84
2022/03/21 04:28:38;;;;;;;14.00;10.65;;;4.40;89.80;;;;;;5036851;28;20213;-85
2022/03/21 04:31:05;;;;;;;18.30;13.63;;;4.40;88.60;;;;;;5036202;28;20241;-85
2022/03/21 04:33:32;;;;;;;14.30;11.55;;;4.40;88.30;;;;;;5036571;28;20222;-84
2022/03/21 04:35:59;;;;;;;15.85;11.68;;;4.30;87.70;;;;;;5036827;28;20577;-85
2022/03/21 04:38:25;;;;;;;13.68;10.93;;;4.40;87.10;;;;;;5016980;28;20203;-84
2022/03/21 04:40:52;;;;;;;14.07;10.82;;;4.40;87.30;;;;;;5030073;28;20214;-84
2022/03/21 04:43:21;;;;;;;15.30;11.82;;;4.40;85.50;;;;;;5035855;28;20221;-84
2022/03/21 04:45:49;;;;;;;12.07;10.40;;;4.30;84.50;;;;;;5035183;28;20210;-84
2022/03/21 04:48:16;;;;;;;13.32;10.68;;;4.30;83.30;;;;;;5035556;28;20206;-84
2022/03/21 04:50:44;;;;;;;12.32;9.77;;;4.30;82.80;;;;;;5035519;28;20236;-84
2022/03/21 04:53:11;;;;;;;13.98;11.00;;;4.30;82.60;;;;;;5038704;28;20238;-84
2022/03/21 04:55:39;;;;;;;12.45;11.00;;;4.40;82.60;;;;;;5039995;28;20253;-84
2022/03/21 04:58:06;;;;;;;13.40;11.27;;;4.30;82.60;;;;;;5039874;28;20297;-84
2022/03/21 05:00:35;;;;;;;11.57;10.35;;;4.40;82.40;;;;;;5038921;28;20221;-84
2022/03/21 05:03:07;;;;;;;12.32;10.65;;;4.30;82.50;;;;;;5039782;28;20210;-85
2022/03/21 05:05:34;;;;;;;15.00;10.38;;;4.40;82.50;;;;;;5038035;28;20203;-84
2022/03/21 05:08:02;;;;;;;12.45;11.25;;;4.40;82.40;;;;;;5039538;28;20214;-85
2022/03/21 05:10:29;;;;;;;13.55;11.02;;;4.40;82.30;;;;;;5038989;28;20226;-84
2022/03/21 05:12:57;;;;;;;13.13;10.35;;;4.40;82.10;;;;;;5039464;28;22222;-84
2022/03/21 05:15:24;;;;;;;12.23;10.93;;;4.30;81.90;;;;;;5039033;28;20214;-84
2022/03/21 05:17:52;;;;;;;12.73;9.82;;;4.30;81.70;;;;;;5038835;28;20224;-83
2022/03/21 05:20:19;;;;;;;11.77;10.68;;;4.40;81.60;;;;;;5038665;28;20226;-84
2022/03/21 05:30:57;;;;;;;13.15;11.70;;;4.40;82.20;;;;;;5042966;28;20210;-82
2022/03/21 05:31:05;;;;;;;10.23;9.20;;;4.30;82.50;;;;;;5040347;28;20963;-83
2022/03/21 05:36:21;;;;;;;12.93;11.18;;;4.30;82.90;;;;;;5032324;28;20214;-82
2022/03/21 05:38:48;;;;;;;14.60;10.38;;;4.30;83.30;;;;;;5040293;28;20214;-81
2022/03/21 05:41:14;;;;;;;11.35;10.20;;;4.30;83.40;;;;;;5040302;28;20230;-82
2022/03/21 05:43:41;;;;;;;12.43;10.15;;;4.30;83.30;;;;;;5040454;28;20224;-82
2022/03/21 05:46:08;;;;;;;14.35;10.38;;;4.20;83.00;;;;;;5040470;28;20304;-82
2022/03/21 05:48:51;;;;;;;12.38;10.00;;;4.20;83.90;;;;;;5039988;28;20220;-83
2022/03/21 05:51:19;;;;;;;11.88;10.68;;;4.20;83.50;;;;;;5040626;28;20225;-82
2022/03/21 05:53:46;;;;;;;11.00;9.90;;;4.30;83.90;;;;;;5040388;28;20206;-81
2022/03/21 05:56:13;;;;;;;13.95;10.48;;;4.30;84.00;;;;;;5039210;28;20252;-85
2022/03/21 05:58:40;;;;;;;12.23;10.90;;;4.30;84.20;;;;;;5039405;28;20202;-86
2022/03/21 06:01:07;;;;;;;11.48;9.40;;;4.30;84.40;;;;;;5039491;28;20214;-85
2022/03/21 06:03:35;;;;;;;12.55;10.95;;;4.40;84.40;;;;;;5037834;28;20195;-85
2022/03/21 06:06:02;;;;;;;12.80;11.40;;;4.40;84.10;;;;;;5039237;28;20214;-85
2022/03/21 06:08:29;;;;;;;12.93;10.10;;;4.40;83.70;;;;;;5038682;28;20213;-85
2022/03/21 06:11:04;;;;;;;12.93;10.65;;;4.40;83.70;;;;;;5038950;28;20234;-85
2022/03/21 06:13:32;;;;;;;12.50;11.30;;;4.50;83.70;;;;;;5038444;28;20194;-85
2022/03/21 06:16:03;;;;;;;15.63;11.57;;;4.50;83.60;;;;;;5038855;28;20230;-85
2022/03/21 06:18:30;;;;;;;10.57;9.13;;;4.50;83.50;;;;;;5039424;28;20211;-86
2022/03/21 06:20:58;;;;;;;12.70;10.18;;;4.60;84.00;;;;;;5038881;28;20223;-84
2022/03/21 06:23:25;;;;;;;12.85;10.60;;;4.60;83.60;;;;;;5038665;28;20203;-85
2022/03/21 06:25:53;;;;;;;16.67;11.75;;;4.70;83.70;;;;;;5039348;28;20583;-85
2022/03/21 06:28:20;;;;;;;14.90;10.60;;;4.70;83.30;;;;;;5038799;28;20550;-84
2022/03/21 06:30:47;;;;;;;12.73;11.25;;;4.70;83.20;;;;;;5038549;28;20237;-85
2022/03/21 06:33:14;;;;;;;12.23;11.02;;;4.80;82.30;;;;;;5038742;28;20206;-86
2022/03/21 06:35:41;;;;;;;13.85;10.35;;;4.80;81.80;;;;;;5038674;28;20217;-85
2022/03/21 06:38:10;;;;;;;11.13;9.55;;;4.90;81.60;;;;;;5038759;28;20206;-85
2022/03/21 06:40:37;;;;;;;12.30;9.75;;;5.00;80.90;;;;;;5038581;28;20758;-83
2022/03/21 06:43:04;;;;;;;12.85;10.15;;;5.10;80.30;;;;;;5039302;28;20217;-84
2022/03/21 06:45:31;;;;;;;12.00;10.60;;;5.20;80.40;;;;;;5040758;28;20301;-84
2022/03/21 07:02:04;;;;;;;14.43;10.57;;;5.80;79.80;;;;;;4872744;29;20319;-83
2022/03/21 07:05:07;;;;;;;13.02;11.25;;;5.90;80.20;;;;;;4904082;29;20209;-83
2022/03/21 07:08:41;;;;;;;19.92;12.98;;;6.00;87.30;;;;;;4955485;29;20232;-83
2022/03/21 07:11:13;;;;;;;16.05;12.63;;;6.10;84.30;;;;;;4961445;29;20232;-83
2022/03/21 07:13:40;;;;;;;13.95;11.73;;;6.30;80.70;;;;;;5056160;28;20195;-81
2022/03/21 07:19:53;;;;;;;14.20;11.70;;;6.50;81.80;;;;;;5019460;28;20214;-83
2022/03/21 07:22:20;;;;;;;13.85;12.48;;;6.60;82.30;;;;;;5039441;28;20241;-83
2022/03/21 07:24:47;;;;;;;13.55;12.15;;;6.70;82.60;;;;;;5037699;28;20571;-81
2022/03/21 07:27:14;;;;;;;14.90;12.13;;;6.90;81.40;;;;;;5037155;28;20196;-81
2022/03/21 07:29:41;;;;;;;20.77;13.40;;;7.10;79.60;;;;;;5038578;28;20287;-81
2022/03/21 07:32:08;;;;;;;16.67;13.15;;;7.20;78.50;;;;;;5037375;28;20313;-82
2022/03/21 07:34:35;;;;;;;16.17;11.98;;;7.40;78.30;;;;;;5040011;28;20217;-81
2022/03/21 07:37:03;;;;;;;17.40;13.15;;;7.50;77.40;;;;;;5042874;28;20230;-82
2022/03/21 07:39:34;;;;;;;14.55;13.05;;;7.60;76.40;;;;;;5038065;28;20660;-82
2022/03/21 07:42:03;;;;;;;27.35;16.02;;;7.70;76.20;;;;;;5036602;28;20574;-82
2022/03/21 07:47:25;;;;;;;19.92;12.45;;;7.90;74.90;;;;;;5037715;28;20615;-82
2022/03/21 07:49:56;;;;;;;13.65;12.30;;;8.00;74.50;;;;;;5037214;28;20226;-81
2022/03/21 07:52:28;;;;;;;14.70;12.38;;;8.10;74.40;;;;;;5036077;28;20219;-82
2022/03/21 07:55:31;;;;;;;20.27;13.27;;;8.20;74.60;;;;;;5038260;28;20234;-83
2022/03/21 07:58:19;;;;;;;15.30;13.65;;;8.30;74.90;;;;;;5038795;28;20207;-83
2022/03/21 08:10:44;;;;;;;15.40;12.85;;;8.70;74.40;;;;;;5029504;28;20232;-82
2022/03/21 08:17:07;;;;;;;18.92;14.55;;;8.90;74.60;;;;;;5017737;28;20218;-84
2022/03/21 08:19:35;;;;;;;15.37;13.77;;;8.90;74.20;;;;;;5020397;28;20300;-82
2022/03/21 08:22:05;;;;;;;19.63;14.10;;;9.10;73.90;;;;;;5039034;28;20460;-82
2022/03/21 08:24:37;;;;;;;16.80;12.50;;;9.20;73.90;;;;;;5039234;28;20518;-82
2022/03/21 08:27:06;;;;;;;15.10;13.17;;;9.30;73.60;;;;;;5038135;28;20474;-80
2022/03/21 08:29:33;;;;;;;15.70;12.83;;;9.50;72.90;;;;;;5037455;28;20467;-80
2022/03/21 08:32:00;;;;;;;14.10;12.70;;;9.60;72.50;;;;;;5037162;28;20492;-81
2022/03/21 08:34:27;;;;;;;13.33;12.07;;;9.70;72.60;;;;;;5039545;28;20466;-81
2022/03/21 08:36:54;;;;;;;13.00;11.70;;;9.80;72.20;;;;;;5037793;28;20537;-81
2022/03/21 08:39:23;;;;;;;18.57;14.27;;;9.90;71.80;;;;;;5038390;28;20454;-81
2022/03/21 08:41:52;;;;;;;17.70;13.00;;;10.00;69.20;;;;;;5038018;28;20478;-80
2022/03/21 08:44:20;;;;;;;14.70;13.30;;;10.20;67.60;;;;;;5038654;28;20460;-79
2022/03/21 08:46:47;;;;;;;17.57;13.90;;;10.30;67.60;;;;;;5036819;28;20452;-80
2022/03/21 08:49:27;;;;;;;14.67;12.90;;;10.40;68.10;;;;;;5030285;28;20468;-81
2022/03/21 08:51:55;;;;;;;15.70;14.13;;;10.50;66.60;;;;;;5037789;28;20500;-79
2022/03/21 08:54:22;;;;;;;16.27;14.53;;;10.60;65.20;;;;;;5046487;28;20451;-79
2022/03/21 08:56:49;;;;;;;16.10;12.80;;;10.60;65.00;;;;;;5047706;28;20452;-79
2022/03/21 08:59:17;;;;;;;17.83;15.93;;;10.60;64.90;;;;;;5050151;28;20450;-80
2022/03/21 09:01:43;;;;;;;15.27;13.67;;;10.80;66.50;;;;;;5041219;28;20459;-80
2022/03/21 09:04:15;;;;;;;16.27;14.17;;;10.90;67.20;;;;;;5041734;28;20845;-81
2022/03/21 09:06:41;;;;;;;15.33;13.83;;;11.00;66.00;;;;;;5045612;28;20453;-78
2022/03/21 09:09:09;;;;;;;15.20;13.13;;;11.10;64.00;;;;;;5046132;28;20467;-78
2022/03/21 09:11:35;;;;;;;16.77;13.90;;;11.10;63.80;;;;;;5044930;28;20492;-78
2022/03/21 09:14:03;;;;;;;17.77;15.50;;;11.20;63.00;;;;;;5044518;28;20452;-78
2022/03/21 09:16:31;;;;;;;16.00;13.50;;;11.30;63.90;;;;;;5041213;28;20554;-78
2022/03/21 09:18:57;;;;;;;18.70;14.30;;;11.40;64.30;;;;;;5035549;28;20457;-78
2022/03/21 09:21:29;;;;;;;15.37;12.80;;;11.50;63.40;;;;;;5035024;28;20475;-83
2022/03/21 09:23:56;;;;;;;15.93;12.90;;;11.70;63.00;;;;;;5035575;28;20456;-79
2022/03/21 09:26:23;;;;;;;15.73;14.00;;;11.80;63.70;;;;;;5036583;28;20459;-79
2022/03/21 09:28:59;;;;;;;20.20;14.23;;;11.90;64.00;;;;;;5035859;28;20452;-79
2022/03/21 09:31:26;;;;;;;18.53;16.77;;;12.10;63.60;;;;;;5034738;28;20494;-79
2022/03/21 09:37:20;;;;;;;16.90;13.47;;;12.40;63.00;;;;;;4995791;28;20482;-81
2022/03/21 09:39:47;;;;;;;15.07;13.57;;;12.60;60.30;;;;;;4995526;28;20466;-80
2022/03/21 09:42:15;;;;;;;15.17;13.57;;;12.70;59.50;;;;;;5028430;28;20452;-80
2022/03/21 09:44:54;;;;;;;16.47;14.50;;;12.80;61.40;;;;;;5037864;28;20449;-81
2022/03/21 09:50:10;;;;;;;15.93;13.57;;;13.10;60.10;;;;;;5039143;28;20515;-79
2022/03/21 09:52:41;;;;;;;16.07;14.47;;;13.30;59.20;;;;;;5041508;28;20563;-79
2022/03/21 09:55:08;;;;;;;20.00;14.77;;;13.50;59.00;;;;;;5052493;28;20487;-79
2022/03/21 09:57:35;;;;;;;15.13;13.63;;;13.70;59.10;;;;;;5052468;28;20453;-80
2022/03/21 10:00:15;;;;;;;15.53;13.50;;;13.80;58.00;;;;;;5039409;28;20469;-83
2022/03/21 10:02:43;;;;;;;15.23;13.50;;;13.60;56.80;;;;;;5039625;28;20528;-80
2022/03/21 10:05:30;;;;;;;16.23;14.53;;;13.60;57.50;;;;;;5039633;28;20909;-80
2022/03/21 10:08:11;;;;;;;15.83;14.33;;;13.90;58.10;;;;;;5039528;28;20964;-80
2022/03/21 10:10:38;;;;;;;16.03;14.33;;;14.10;57.70;;;;;;5039157;28;20493;-79
2022/03/21 10:13:09;;;;;;;17.70;15.30;;;14.20;57.80;;;;;;5039232;28;20481;-79
2022/03/21 10:15:36;;;;;;;22.03;15.33;;;14.30;57.80;;;;;;5039125;28;20460;-79
2022/03/21 10:18:07;;;;;;;17.00;15.27;;;14.50;56.90;;;;;;5039014;28;20983;-80
2022/03/21 10:20:37;;;;;;;18.50;15.27;;;14.60;57.00;;;;;;5038134;28;20479;-80
2022/03/21 10:23:27;;;;;;;16.23;14.47;;;14.70;56.50;;;;;;5039247;28;20446;-80
2022/03/21 10:25:55;;;;;;;16.40;14.70;;;14.90;56.90;;;;;;5045596;28;20529;-80
2022/03/21 10:31:34;;;;;;;17.37;15.43;;;15.10;55.10;;;;;;5042204;28;20493;-80
2022/03/21 10:34:06;;;;;;;18.90;16.93;;;15.10;55.50;;;;;;5042050;28;20464;-80
2022/03/21 10:37:15;;;;;;;17.23;15.53;;;15.30;56.10;;;;;;5042481;28;20455;-82
2022/03/21 10:39:53;;;;;;;16.07;14.40;;;15.60;54.60;;;;;;5030688;28;20473;-79
2022/03/21 10:42:21;;;;;;;17.57;14.87;;;15.90;56.20;;;;;;5038283;28;20505;-81
2022/03/21 10:44:58;;;;;;;15.00;13.40;;;16.20;55.80;;;;;;5038220;28;20488;-81
2022/03/21 10:47:25;;;;;;;17.53;15.73;;;16.60;53.90;;;;;;5040253;28;20550;-81
2022/03/21 10:50:02;;;;;;;16.80;15.13;;;16.80;52.50;;;;;;5039447;28;20506;-80
2022/03/21 10:52:28;;;;;;;16.13;14.40;;;17.10;53.40;;;;;;5038902;28;20465;-80
2022/03/21 10:55:03;;;;;;;17.73;15.83;;;17.30;51.20;;;;;;5038984;28;20461;-81
2022/03/21 10:57:32;;;;;;;17.43;15.77;;;17.50;52.30;;;;;;5046957;28;20475;-82
2022/03/21 11:00:20;;;;;;;18.03;16.27;;;17.70;52.60;;;;;;5058466;28;20480;-81
2022/03/21 11:02:57;;;;;;;19.10;17.10;;;17.80;50.40;;;;;;5047184;28;20452;-82
2022/03/21 11:05:25;;;;;;;18.60;14.73;;;18.00;50.60;;;;;;5040976;28;20794;-82
2022/03/21 11:07:53;;;;;;;17.80;15.90;;;18.20;50.30;;;;;;5040326;28;20820;-82
2022/03/21 11:10:22;;;;;;;18.53;15.30;;;18.30;49.20;;;;;;5039409;28;20475;-82
2022/03/21 11:12:49;;;;;;;17.30;15.60;;;18.40;50.30;;;;;;5039445;28;20484;-82
2022/03/21 11:15:16;;;;;;;16.57;14.80;;;18.60;49.70;;;;;;5039416;28;20976;-82
2022/03/21 11:17:44;;;;;;;17.67;16.00;;;18.90;48.70;;;;;;5039838;28;20464;-82
2022/03/21 11:20:13;;;;;;;18.37;14.50;;;19.00;49.10;;;;;;5038807;28;20480;-83
2022/03/21 11:22:40;;;;;;;16.77;14.60;;;19.30;48.40;;;;;;5039086;28;20522;-83
2022/03/21 11:25:10;;;;;;;17.30;15.60;;;19.60;48.70;;;;;;5039270;28;20468;-82
2022/03/21 11:28:01;;;;;;;18.20;16.03;;;19.90;47.60;;;;;;5039397;28;20951;-83
2022/03/21 11:30:49;;;;;;;17.13;15.07;;;20.10;47.40;;;;;;5038161;28;20487;-82
2022/03/21 11:33:33;;;;;;;16.90;15.20;;;20.30;46.60;;;;;;5041238;28;20495;-83
2022/03/21 11:36:02;;;;;;;17.87;16.17;;;20.50;46.00;;;;;;5039072;28;20449;-82
2022/03/21 11:38:30;;;;;;;17.57;15.93;;;20.80;46.20;;;;;;5038859;28;20450;-82
2022/03/21 11:41:16;;;;;;;19.57;17.77;;;20.90;43.60;;;;;;5038678;28;20500;-83
2022/03/21 11:43:45;;;;;;;16.73;15.13;;;21.00;45.30;;;;;;5038144;28;20472;-83
2022/03/21 11:46:34;;;;;;;16.90;15.40;;;21.20;43.60;;;;;;5039331;28;20447;-83
2022/03/21 11:49:03;;;;;;;16.70;15.00;;;21.50;43.00;;;;;;5034682;28;20969;-83
2022/03/21 11:51:36;;;;;;;16.83;15.13;;;22.20;43.70;;;;;;5038932;28;20847;-83
2022/03/21 11:54:06;;;;;;;17.47;15.73;;;23.00;42.10;;;;;;5038608;28;20463;-83
2022/03/21 11:56:54;;;;;;;17.97;16.17;;;23.70;40.30;;;;;;5039363;28;20452;-83
2022/03/21 11:59:51;;;;;;;16.53;15.00;;;24.30;40.00;;;;;;5038989;28;20450;-83
2022/03/21 12:03:00;;;;;;;18.60;16.90;;;24.20;37.50;;;;;;5037709;28;20445;-83
2022/03/21 12:08:46;;;;;;;18.47;16.83;;;23.50;36.10;;;;;;5037394;28;20880;-83
2022/03/21 12:11:50;;;;;;;18.30;16.00;;;23.60;37.60;;;;;;5037668;28;20518;-82
2022/03/21 12:14:40;;;;;;;19.70;17.67;;;23.80;37.30;;;;;;5038074;28;20827;-82
2022/03/21 12:17:30;;;;;;;18.13;16.33;;;24.50;36.70;;;;;;5037395;28;20544;-82
2022/03/21 12:20:03;;;;;;;18.60;16.83;;;25.10;36.00;;;;;;5038645;28;20470;-83
2022/03/21 12:22:39;;;;;;;18.33;16.47;;;25.50;34.20;;;;;;5039310;28;20465;-83
2022/03/21 12:25:09;;;;;;;16.83;15.33;;;25.90;34.70;;;;;;5038849;28;20446;-83
2022/03/21 12:27:38;;;;;;;17.20;15.50;;;26.60;35.50;;;;;;5038896;28;20536;-83
2022/03/21 12:30:34;;;;;;;17.53;15.90;;;26.90;31.70;;;;;;5038324;28;20476;-83
2022/03/21 12:33:04;;;;;;;18.17;16.20;;;27.10;32.40;;;;;;5038705;28;20498;-83
2022/03/21 12:35:54;;;;;;;18.13;16.20;;;27.70;32.30;;;;;;5039417;28;20789;-83
2022/03/21 12:38:23;;;;;;;16.67;15.20;;;28.20;30.40;;;;;;5038733;28;20459;-83
2022/03/21 12:40:55;;;;;;;17.03;15.47;;;27.90;31.40;;;;;;5037714;28;21016;-82
2022/03/21 12:43:24;;;;;;;18.90;16.90;;;28.10;31.10;;;;;;5038413;28;20829;-82
2022/03/21 12:45:56;;;;;;;18.80;17.00;;;28.60;30.50;;;;;;5038663;28;20451;-82
2022/03/21 12:48:29;;;;;;;20.07;16.90;;;28.60;29.40;;;;;;5038606;28;21253;-82
2022/03/21 12:50:58;;;;;;;17.00;15.50;;;28.50;29.30;;;;;;5036765;28;20475;-82
2022/03/21 12:53:37;;;;;;;17.47;15.87;;;28.70;29.70;;;;;;5036902;28;20456;-82
2022/03/21 12:56:07;;;;;;;18.47;15.70;;;28.80;29.30;;;;;;5036770;28;20455;-81
2022/03/21 12:58:35;;;;;;;17.17;14.67;;;28.50;28.50;;;;;;5036078;28;20471;-82
2022/03/21 13:01:03;;;;;;;17.03;15.53;;;28.40;29.10;;;;;;5035017;28;20477;-82
2022/03/21 13:03:30;;;;;;;16.30;14.70;;;28.40;29.20;;;;;;5035507;28;20614;-82
2022/03/21 13:11:32;;;;;;;15.43;13.90;;;27.90;29.40;;;;;;5044756;28;20464;-82
2022/03/21 13:14:00;;;;;;;18.27;16.73;;;27.00;29.10;;;;;;5048518;28;20454;-83
2022/03/21 13:16:28;;;;;;;18.03;13.70;;;26.70;29.40;;;;;;5040395;28;20453;-83
2022/03/21 13:18:56;;;;;;;16.77;14.50;;;26.40;29.60;;;;;;5041639;28;20503;-83
2022/03/21 13:21:24;;;;;;;15.67;14.00;;;26.50;30.10;;;;;;5040095;28;20482;-83
2022/03/21 13:23:52;;;;;;;16.07;14.57;;;26.80;30.00;;;;;;5039419;28;20489;-84
2022/03/21 13:26:22;;;;;;;16.07;14.37;;;26.60;29.00;;;;;;5039238;28;20459;-84
2022/03/21 13:28:50;;;;;;;16.57;14.97;;;26.80;29.60;;;;;;5039592;28;20451;-83
2022/03/21 13:31:18;;;;;;;15.50;13.87;;;27.10;28.80;;;;;;5038765;28;20470;-84
2022/03/21 13:33:53;;;;;;;16.70;15.00;;;27.10;28.90;;;;;;5040321;28;20532;-84
2022/03/21 13:36:23;;;;;;;15.27;13.77;;;26.30;28.80;;;;;;5039699;28;20501;-84
2022/03/21 13:39:08;;;;;;;14.63;13.13;;;25.70;29.40;;;;;;5039387;28;20510;-83
2022/03/21 13:41:50;;;;;;;13.80;12.50;;;25.00;29.60;;;;;;5038751;28;20446;-84
2022/03/21 13:44:16;;;;;;;15.73;14.13;;;25.00;30.20;;;;;;5039294;28;20466;-84
2022/03/21 13:46:59;;;;;;;14.33;13.10;;;25.10;31.10;;;;;;5039444;28;20454;-83
2022/03/21 13:49:41;;;;;;;15.63;13.80;;;25.00;30.70;;;;;;5039496;28;20441;-84
2022/03/21 13:52:08;;;;;;;14.60;13.20;;;25.20;31.00;;;;;;5039068;28;20439;-83
2022/03/21 13:54:50;;;;;;;16.70;15.03;;;25.40;30.80;;;;;;5039700;28;20526;-83
2022/03/21 13:57:17;;;;;;;14.17;12.80;;;25.60;30.50;;;;;;5039458;28;20479;-83
2022/03/21 13:59:58;;;;;;;15.67;14.20;;;25.50;30.60;;;;;;5038889;28;20467;-83
2022/03/21 14:02:25;;;;;;;13.90;12.57;;;25.70;31.00;;;;;;5038009;28;20983;-83
2022/03/21 14:04:53;;;;;;;14.93;13.63;;;26.00;30.80;;;;;;5038966;28;20521;-83
2022/03/21 14:07:30;;;;;;;15.97;14.10;;;25.80;29.70;;;;;;5037978;28;20476;-84
2022/03/21 14:09:58;;;;;;;14.93;12.90;;;26.00;30.50;;;;;;5038180;28;20472;-84
2022/03/21 14:12:28;;;;;;;16.90;15.03;;;26.30;30.20;;;;;;5037666;28;20477;-84
2022/03/21 14:14:55;;;;;;;15.20;13.80;;;26.50;30.10;;;;;;5038688;28;20456;-84
2022/03/21 14:17:22;;;;;;;14.10;12.70;;;26.50;29.50;;;;;;5038113;28;20968;-83
2022/03/21 14:19:48;;;;;;;16.17;14.73;;;26.60;29.70;;;;;;5038230;28;20475;-83
2022/03/21 14:22:15;;;;;;;15.13;13.20;;;26.60;29.50;;;;;;5037801;28;20462;-84
2022/03/21 14:24:42;;;;;;;17.57;12.67;;;26.60;29.80;;;;;;5038070;28;20525;-83
2022/03/21 14:27:10;;;;;;;14.43;12.90;;;26.60;29.40;;;;;;5038522;28;20456;-84
2022/03/21 14:29:37;;;;;;;12.53;11.40;;;26.40;28.80;;;;;;5038362;28;20492;-84
2022/03/21 14:32:04;;;;;;;16.90;13.40;;;25.30;29.00;;;;;;5037778;28;20969;-84
2022/03/21 14:34:31;;;;;;;12.43;11.23;;;25.00;29.70;;;;;;5038761;28;20453;-84
2022/03/21 14:36:59;;;;;;;12.83;11.50;;;24.70;29.80;;;;;;5038248;28;20437;-84
2022/03/21 14:39:26;;;;;;;12.00;10.93;;;23.90;29.90;;;;;;5037514;28;20454;-83
2022/03/21 14:41:53;;;;;;;18.10;12.40;;;23.50;30.60;;;;;;5036900;28;20457;-83
2022/03/21 14:44:22;;;;;;;13.10;11.67;;;23.50;31.20;;;;;;5037112;28;20492;-83
2022/03/21 14:46:49;;;;;;;11.50;10.20;;;23.10;31.20;;;;;;5037534;28;20480;-83
2022/03/21 14:49:16;;;;;;;13.90;11.10;;;23.20;31.90;;;;;;5045335;28;20445;-83
2022/03/21 14:51:43;;;;;;;12.27;11.17;;;23.50;31.60;;;;;;5051755;28;20461;-83